Time;durP1;ratioP1;P1;durP2;ratioP2;P2;SDS_P1;SDS_P2;PMS_P1;PMS_P2;Temp;Humidity;BMP_temperature;BMP_pressure;BME280_temperature;BME280_humidity;BME280_pressure;Samples;Min_cycle;Max_cycle;Signal;HPM_P1;HPM_P2
2023/05/19 00:02:19;;;;;;;12.23;6.93;;;8.80;99.90;;;;;;5046325;28;20534;-76
2023/05/19 00:04:48;;;;;;;8.93;6.00;;;8.80;99.90;;;;;;5049249;28;20453;-76
2023/05/19 00:07:19;;;;;;;8.73;6.63;;;8.80;99.90;;;;;;5051891;28;20548;-76
2023/05/19 00:09:48;;;;;;;8.03;6.47;;;8.80;99.90;;;;;;5035924;28;20463;-75
2023/05/19 00:12:16;;;;;;;14.60;8.60;;;8.80;99.90;;;;;;5048099;28;20466;-75
2023/05/19 00:14:43;;;;;;;12.33;6.20;;;8.80;99.90;;;;;;5044951;28;21127;-76
2023/05/19 00:17:10;;;;;;;13.50;7.33;;;8.80;99.90;;;;;;5045966;28;20523;-76
2023/05/19 00:19:38;;;;;;;10.77;7.43;;;8.80;99.90;;;;;;5049105;28;20518;-76
2023/05/19 00:22:05;;;;;;;7.23;6.00;;;8.80;99.90;;;;;;5047011;28;20595;-76
2023/05/19 00:24:32;;;;;;;12.73;6.37;;;8.80;99.90;;;;;;5048324;28;20542;-76
2023/05/19 00:27:00;;;;;;;6.60;5.10;;;8.80;99.90;;;;;;5059242;28;20469;-76
2023/05/19 00:29:27;;;;;;;7.27;5.97;;;8.80;99.90;;;;;;5045805;28;20457;-76
2023/05/19 00:31:54;;;;;;;7.20;5.67;;;8.80;99.90;;;;;;5043716;28;20461;-76
2023/05/19 00:34:21;;;;;;;10.53;6.87;;;8.70;99.90;;;;;;5047773;28;20457;-75
2023/05/19 00:36:48;;;;;;;10.13;6.03;;;8.70;99.90;;;;;;5048038;28;20506;-76
2023/05/19 00:39:15;;;;;;;8.50;6.10;;;8.60;99.90;;;;;;5045078;28;20875;-76
2023/05/19 00:41:42;;;;;;;11.07;7.33;;;8.60;99.90;;;;;;5045514;28;20512;-76
2023/05/19 00:44:10;;;;;;;8.93;6.73;;;8.60;99.90;;;;;;5042527;28;20535;-75
2023/05/19 00:46:37;;;;;;;11.60;6.70;;;8.70;99.90;;;;;;5048193;28;20929;-75
2023/05/19 00:49:04;;;;;;;8.73;6.40;;;8.70;99.90;;;;;;5047727;28;20429;-76
2023/05/19 00:51:31;;;;;;;17.03;7.57;;;8.70;99.90;;;;;;5041874;28;20449;-76
2023/05/19 00:53:59;;;;;;;12.20;7.10;;;8.60;99.90;;;;;;5030574;28;20527;-76
2023/05/19 00:56:26;;;;;;;14.47;8.20;;;8.60;99.90;;;;;;5041270;28;20526;-76
2023/05/19 00:58:54;;;;;;;10.33;6.70;;;8.60;99.90;;;;;;5045939;28;20461;-78
2023/05/19 01:01:25;;;;;;;16.80;6.70;;;8.60;99.90;;;;;;5045447;28;20493;-78
2023/05/19 01:03:53;;;;;;;7.67;5.83;;;8.50;99.90;;;;;;5047092;28;20445;-78
2023/05/19 01:06:20;;;;;;;8.87;7.00;;;8.50;99.90;;;;;;5048188;28;20441;-78
2023/05/19 01:08:47;;;;;;;8.40;6.97;;;8.50;99.90;;;;;;5046790;28;20508;-78
2023/05/19 01:11:14;;;;;;;7.90;6.30;;;8.50;99.90;;;;;;5044738;28;20940;-78
2023/05/19 01:13:41;;;;;;;8.80;7.50;;;8.40;99.90;;;;;;5046888;28;20460;-78
2023/05/19 01:16:13;;;;;;;10.80;6.83;;;8.40;99.90;;;;;;5047362;28;20453;-78
2023/05/19 01:19:00;;;;;;;10.47;5.80;;;8.40;99.90;;;;;;5046170;28;20540;-78
2023/05/19 01:22:00;;;;;;;16.20;6.97;;;8.30;99.90;;;;;;5048841;28;21459;-78
2023/05/19 01:25:16;;;;;;;9.40;6.63;;;8.30;99.90;;;;;;5044263;28;21139;-78
2023/05/19 01:27:56;;;;;;;14.97;8.43;;;8.40;99.90;;;;;;5000608;28;20510;-79
2023/05/19 01:30:30;;;;;;;9.43;6.73;;;8.50;99.90;;;;;;5052977;28;20460;-78
2023/05/19 01:33:00;;;;;;;9.10;6.90;;;8.40;99.90;;;;;;5044708;28;20469;-78
2023/05/19 01:35:28;;;;;;;17.67;7.43;;;8.40;99.90;;;;;;5055767;28;20931;-78
2023/05/19 01:37:56;;;;;;;13.03;7.50;;;8.40;99.90;;;;;;5049918;28;20469;-78
2023/05/19 01:40:25;;;;;;;8.50;7.30;;;8.40;99.90;;;;;;5048601;28;20943;-78
2023/05/19 01:42:55;;;;;;;12.80;6.67;;;8.30;99.90;;;;;;5049983;28;20512;-78
2023/05/19 01:45:23;;;;;;;11.73;7.40;;;8.30;99.90;;;;;;5045220;28;20489;-78
2023/05/19 01:47:53;;;;;;;12.53;7.47;;;8.30;99.90;;;;;;5046191;28;20457;-78
2023/05/19 01:50:21;;;;;;;9.60;8.00;;;8.30;99.90;;;;;;5046942;28;20492;-78
2023/05/19 01:52:48;;;;;;;9.40;7.60;;;8.30;99.90;;;;;;5046552;28;20465;-78
2023/05/19 01:55:15;;;;;;;9.30;8.17;;;8.30;99.90;;;;;;5046634;28;20457;-78
2023/05/19 01:57:50;;;;;;;10.43;8.60;;;8.30;99.90;;;;;;5046463;28;20510;-78
2023/05/19 02:00:26;;;;;;;9.17;8.23;;;8.30;99.90;;;;;;5043117;28;21002;-78
2023/05/19 02:03:03;;;;;;;9.37;8.47;;;8.30;99.90;;;;;;5044573;28;21032;-78
2023/05/19 02:05:38;;;;;;;13.20;8.37;;;8.30;99.90;;;;;;5035476;28;21081;-79
2023/05/19 02:08:12;;;;;;;10.20;8.23;;;8.20;99.90;;;;;;5036436;28;20461;-78
2023/05/19 02:10:42;;;;;;;10.90;8.23;;;8.20;99.90;;;;;;5038136;28;20497;-78
2023/05/19 02:13:12;;;;;;;12.43;8.20;;;8.20;99.90;;;;;;5036681;28;20457;-78
2023/05/19 02:15:42;;;;;;;10.83;8.80;;;8.10;99.90;;;;;;5043581;28;20857;-78
2023/05/19 02:18:12;;;;;;;9.23;7.13;;;8.10;99.90;;;;;;5043702;28;20465;-78
2023/05/19 02:20:41;;;;;;;10.20;9.10;;;8.20;99.90;;;;;;5046803;28;20456;-78
2023/05/19 02:23:08;;;;;;;9.40;8.50;;;8.20;99.90;;;;;;5044820;28;20484;-78
2023/05/19 02:25:35;;;;;;;12.80;9.20;;;8.20;99.90;;;;;;5045521;28;20461;-78
2023/05/19 02:28:02;;;;;;;9.57;8.53;;;8.20;99.90;;;;;;5038866;28;20970;-78
2023/05/19 02:30:30;;;;;;;11.83;8.37;;;8.20;99.90;;;;;;5046536;28;20469;-78
2023/05/19 02:32:57;;;;;;;12.87;8.00;;;8.30;99.90;;;;;;5038985;28;20472;-78
2023/05/19 02:35:26;;;;;;;11.10;8.60;;;8.20;99.90;;;;;;5038864;28;20481;-78
2023/05/19 02:37:53;;;;;;;13.97;7.70;;;8.30;99.90;;;;;;5039409;28;20883;-78
2023/05/19 02:40:21;;;;;;;10.43;8.97;;;8.30;99.90;;;;;;5038415;28;20461;-78
2023/05/19 02:42:48;;;;;;;11.30;7.97;;;8.30;99.90;;;;;;5038978;28;20488;-78
2023/05/19 02:45:15;;;;;;;14.30;9.23;;;8.20;99.90;;;;;;5038629;28;22155;-78
2023/05/19 02:47:42;;;;;;;10.03;7.37;;;8.20;99.90;;;;;;5039193;28;20554;-78
2023/05/19 02:50:09;;;;;;;10.93;7.60;;;8.30;99.90;;;;;;5039976;28;20469;-78
2023/05/19 02:52:38;;;;;;;9.30;8.23;;;8.30;99.90;;;;;;5039670;28;20461;-76
2023/05/19 02:55:05;;;;;;;12.13;7.97;;;8.30;99.90;;;;;;5039249;28;20507;-76
2023/05/19 02:57:34;;;;;;;10.83;7.90;;;8.30;99.90;;;;;;5038541;28;21009;-76
2023/05/19 03:00:01;;;;;;;9.33;8.30;;;8.30;99.90;;;;;;5040623;28;20927;-76
2023/05/19 03:02:28;;;;;;;9.43;7.80;;;8.20;99.90;;;;;;5038975;28;20477;-76
2023/05/19 03:04:55;;;;;;;8.60;7.70;;;8.20;99.90;;;;;;5040462;28;20468;-76
2023/05/19 03:07:23;;;;;;;12.10;8.10;;;8.20;99.90;;;;;;5039859;28;21039;-76
2023/05/19 03:09:52;;;;;;;12.37;8.40;;;8.20;99.90;;;;;;5041472;28;20473;-76
2023/05/19 03:12:20;;;;;;;14.30;8.50;;;8.20;99.90;;;;;;5039581;28;20488;-76
2023/05/19 03:14:47;;;;;;;16.10;7.90;;;8.20;99.90;;;;;;5040591;28;20469;-78
2023/05/19 03:17:14;;;;;;;9.50;7.70;;;8.20;99.90;;;;;;5040270;28;21223;-79
2023/05/19 03:19:41;;;;;;;12.73;8.67;;;8.20;99.90;;;;;;5040785;28;20464;-78
2023/05/19 03:22:08;;;;;;;11.30;8.13;;;8.30;99.90;;;;;;5038107;28;20900;-79
2023/05/19 03:24:35;;;;;;;10.43;7.77;;;8.20;99.90;;;;;;5038371;28;20550;-78
2023/05/19 03:27:05;;;;;;;8.20;7.50;;;8.20;99.90;;;;;;5038229;28;20539;-79
2023/05/19 03:29:32;;;;;;;10.20;7.00;;;8.20;99.90;;;;;;5039945;28;22085;-78
2023/05/19 03:31:59;;;;;;;11.33;8.30;;;8.10;99.90;;;;;;5039344;28;20527;-78
2023/05/19 03:34:26;;;;;;;7.53;6.70;;;8.10;99.90;;;;;;5039115;28;20480;-78
2023/05/19 03:36:53;;;;;;;9.27;7.77;;;8.10;99.90;;;;;;5040594;28;21206;-78
2023/05/19 03:39:20;;;;;;;22.77;10.50;;;8.10;99.90;;;;;;5040129;28;20489;-79
2023/05/19 03:41:47;;;;;;;11.17;8.90;;;8.10;99.90;;;;;;5040533;28;21123;-78
2023/05/19 03:44:15;;;;;;;15.67;8.20;;;8.10;99.90;;;;;;5040535;28;20521;-76
2023/05/19 03:46:42;;;;;;;13.43;8.80;;;8.10;99.90;;;;;;5039374;28;20850;-76
2023/05/19 03:49:10;;;;;;;9.37;8.00;;;8.10;99.90;;;;;;5040272;28;20473;-76
2023/05/19 03:51:37;;;;;;;7.60;7.00;;;8.20;99.90;;;;;;5044749;28;20518;-76
2023/05/19 03:54:04;;;;;;;11.00;7.97;;;8.10;99.90;;;;;;5043927;28;20469;-76
2023/05/19 03:56:31;;;;;;;9.63;8.73;;;8.10;99.90;;;;;;5044205;28;20481;-76
2023/05/19 03:58:59;;;;;;;9.20;7.93;;;8.20;99.90;;;;;;5044087;28;21318;-76
2023/05/19 04:01:27;;;;;;;10.90;6.50;;;8.30;99.90;;;;;;5041763;28;20964;-76
2023/05/19 04:03:54;;;;;;;9.90;7.50;;;8.30;99.90;;;;;;5044115;28;20476;-78
2023/05/19 04:06:22;;;;;;;13.27;8.97;;;8.20;99.90;;;;;;5043727;28;20894;-78
2023/05/19 04:08:49;;;;;;;13.33;7.90;;;8.20;99.90;;;;;;5044036;28;20460;-79
2023/05/19 04:11:16;;;;;;;12.03;8.53;;;8.30;99.90;;;;;;5043420;28;20524;-79
2023/05/19 04:13:43;;;;;;;15.30;7.87;;;8.30;99.90;;;;;;5043218;28;20484;-78
2023/05/19 04:16:10;;;;;;;8.60;7.90;;;8.20;99.90;;;;;;5041576;28;20574;-79
2023/05/19 04:18:38;;;;;;;7.57;6.80;;;8.30;99.90;;;;;;5040876;28;20488;-78
2023/05/19 04:21:07;;;;;;;10.47;7.60;;;8.30;99.90;;;;;;5040943;28;20461;-78
2023/05/19 04:23:34;;;;;;;10.60;9.50;;;8.30;99.90;;;;;;5042290;28;20984;-79
2023/05/19 04:26:02;;;;;;;7.87;7.07;;;8.20;99.90;;;;;;5043110;28;20501;-76
2023/05/19 04:28:29;;;;;;;9.60;7.37;;;8.20;99.90;;;;;;5042694;28;20556;-77
2023/05/19 04:30:57;;;;;;;9.20;7.47;;;8.30;99.90;;;;;;5043522;28;20467;-77
2023/05/19 04:33:24;;;;;;;13.70;9.10;;;8.30;99.90;;;;;;5042205;28;20473;-76
2023/05/19 04:35:52;;;;;;;11.40;8.10;;;8.40;99.90;;;;;;5044363;28;20441;-77
2023/05/19 04:38:20;;;;;;;10.47;8.67;;;8.50;99.90;;;;;;5042922;28;20551;-76
2023/05/19 04:40:48;;;;;;;11.60;8.43;;;8.50;99.90;;;;;;5042610;28;20468;-76
2023/05/19 04:43:16;;;;;;;9.30;8.10;;;8.50;99.90;;;;;;5041523;28;20520;-76
2023/05/19 04:45:43;;;;;;;10.33;7.50;;;8.60;99.90;;;;;;5041974;28;20461;-76
2023/05/19 04:48:11;;;;;;;10.63;6.97;;;8.70;99.90;;;;;;5041305;28;20535;-77
2023/05/19 04:50:40;;;;;;;7.37;6.67;;;8.80;99.90;;;;;;5041905;28;21056;-76
2023/05/19 04:53:10;;;;;;;8.90;7.10;;;8.90;99.90;;;;;;5042042;28;20578;-76
2023/05/19 04:55:38;;;;;;;8.83;7.30;;;9.00;99.90;;;;;;5042948;28;20460;-77
2023/05/19 04:58:05;;;;;;;13.47;7.80;;;9.10;99.90;;;;;;5043441;28;20822;-76
2023/05/19 05:00:34;;;;;;;9.27;7.73;;;9.10;99.90;;;;;;5041607;28;21277;-77
2023/05/19 05:03:03;;;;;;;8.90;6.87;;;9.20;99.90;;;;;;5041636;28;20483;-77
2023/05/19 05:05:30;;;;;;;8.17;7.37;;;9.30;99.90;;;;;;5041632;28;20457;-77
2023/05/19 05:07:58;;;;;;;10.83;7.73;;;9.30;99.90;;;;;;5040469;28;21079;-76
2023/05/19 05:10:27;;;;;;;9.40;6.60;;;9.50;99.90;;;;;;5042843;28;21359;-76
2023/05/19 05:12:54;;;;;;;9.53;8.63;;;9.50;99.90;;;;;;5042742;28;20560;-76
2023/05/19 05:15:23;;;;;;;7.53;6.80;;;9.50;99.90;;;;;;5042649;28;20999;-76
2023/05/19 05:17:50;;;;;;;10.50;7.80;;;9.50;99.90;;;;;;5041651;28;20485;-77
2023/05/19 05:20:19;;;;;;;14.13;8.47;;;9.50;99.90;;;;;;5039970;28;21006;-76
2023/05/19 05:22:46;;;;;;;11.73;8.20;;;9.60;99.90;;;;;;5041878;28;20679;-76
2023/05/19 05:25:15;;;;;;;15.10;7.50;;;9.70;99.90;;;;;;5040776;28;20493;-76
2023/05/19 05:27:43;;;;;;;8.67;7.80;;;9.70;99.90;;;;;;5041227;28;20475;-77
2023/05/19 05:30:11;;;;;;;9.40;7.53;;;9.80;99.90;;;;;;5040379;28;20546;-76
2023/05/19 05:32:38;;;;;;;9.27;6.90;;;9.80;99.90;;;;;;5041478;28;20570;-76
2023/05/19 05:35:06;;;;;;;11.40;8.53;;;9.80;99.90;;;;;;5041123;28;20481;-76
2023/05/19 05:37:33;;;;;;;8.30;7.50;;;9.90;99.90;;;;;;5041759;28;20860;-76
2023/05/19 05:40:00;;;;;;;11.63;8.90;;;10.10;99.90;;;;;;5040082;28;20494;-76
2023/05/19 05:42:27;;;;;;;12.93;8.83;;;10.00;99.90;;;;;;5042809;28;20489;-76
2023/05/19 05:44:55;;;;;;;11.20;8.70;;;10.00;99.90;;;;;;5040919;28;20591;-77
2023/05/19 05:47:22;;;;;;;9.87;8.33;;;10.20;99.90;;;;;;5041516;28;20511;-76
2023/05/19 05:49:50;;;;;;;11.30;10.10;;;10.20;99.90;;;;;;5042891;28;20496;-77
2023/05/19 05:52:21;;;;;;;8.73;7.93;;;10.30;99.90;;;;;;5042064;28;20488;-77
2023/05/19 05:54:48;;;;;;;17.67;10.40;;;10.40;99.90;;;;;;5039487;28;20472;-77
2023/05/19 05:57:15;;;;;;;8.90;8.00;;;10.40;99.90;;;;;;5040653;28;20531;-76
2023/05/19 05:59:44;;;;;;;16.23;11.37;;;10.50;99.90;;;;;;5040217;28;20496;-77
2023/05/19 06:02:12;;;;;;;12.50;9.37;;;10.40;99.90;;;;;;5040548;28;20469;-76
2023/05/19 06:04:39;;;;;;;11.70;9.67;;;10.10;99.90;;;;;;5040712;28;20519;-76
2023/05/19 06:07:06;;;;;;;17.23;10.10;;;10.10;99.90;;;;;;5037978;28;20471;-77
2023/05/19 06:09:33;;;;;;;11.13;9.50;;;10.10;99.90;;;;;;5037514;28;20555;-77
2023/05/19 06:12:00;;;;;;;13.57;10.13;;;10.00;99.90;;;;;;5037996;28;20452;-76
2023/05/19 06:14:27;;;;;;;14.37;9.27;;;10.00;99.90;;;;;;5039949;28;20585;-76
2023/05/19 06:16:54;;;;;;;10.10;9.10;;;10.00;99.90;;;;;;5041232;28;20614;-76
2023/05/19 06:19:23;;;;;;;11.50;10.30;;;10.00;99.90;;;;;;5040862;28;20562;-76
2023/05/19 06:21:51;;;;;;;17.00;9.77;;;10.10;99.90;;;;;;5040592;28;20500;-76
2023/05/19 06:24:18;;;;;;;11.20;9.27;;;10.10;99.90;;;;;;5041454;28;20485;-77
2023/05/19 06:26:44;;;;;;;15.30;11.07;;;10.20;99.90;;;;;;5040222;28;20497;-77
2023/05/19 06:29:11;;;;;;;9.80;9.00;;;10.20;99.90;;;;;;5040357;28;20477;-77
2023/05/19 06:31:38;;;;;;;11.60;9.43;;;10.30;99.90;;;;;;5041443;28;20461;-77
2023/05/19 06:34:06;;;;;;;12.57;9.37;;;10.30;99.90;;;;;;5038714;28;20452;-76
2023/05/19 06:36:34;;;;;;;10.50;9.40;;;10.20;99.90;;;;;;5040413;28;21006;-77
2023/05/19 06:39:01;;;;;;;11.13;9.10;;;10.20;99.90;;;;;;5036187;28;20473;-76
2023/05/19 06:41:28;;;;;;;14.50;9.57;;;10.40;99.90;;;;;;5037359;28;21044;-77
2023/05/19 06:43:55;;;;;;;13.90;10.00;;;10.40;99.90;;;;;;5039326;28;20611;-77
2023/05/19 06:46:22;;;;;;;9.67;8.67;;;10.50;99.90;;;;;;5040735;28;20466;-77
2023/05/19 06:48:49;;;;;;;12.10;10.57;;;10.70;99.90;;;;;;5039854;28;20473;-76
2023/05/19 06:51:20;;;;;;;10.23;9.23;;;10.90;99.90;;;;;;5039998;28;22056;-77
2023/05/19 06:53:48;;;;;;;12.90;8.50;;;11.10;99.90;;;;;;5040692;28;20984;-76
2023/05/19 06:56:17;;;;;;;10.00;7.43;;;11.10;99.90;;;;;;5040509;28;20473;-76
2023/05/19 06:58:44;;;;;;;11.07;8.73;;;11.10;99.90;;;;;;5039554;28;20556;-76
2023/05/19 07:01:11;;;;;;;11.20;9.27;;;11.10;99.90;;;;;;5039378;28;20465;-77
2023/05/19 07:03:38;;;;;;;9.83;8.57;;;11.10;99.90;;;;;;5040462;28;20550;-76
2023/05/19 07:06:05;;;;;;;14.97;8.43;;;11.20;99.90;;;;;;5039772;28;20558;-76
2023/05/19 07:08:33;;;;;;;11.40;8.37;;;11.10;99.90;;;;;;5040997;28;20503;-77
2023/05/19 07:11:01;;;;;;;11.10;8.23;;;10.90;99.90;;;;;;5040957;28;20519;-77
2023/05/19 07:13:28;;;;;;;10.93;8.20;;;11.00;99.90;;;;;;5038298;28;20462;-77
2023/05/19 07:15:55;;;;;;;11.50;8.37;;;11.10;99.90;;;;;;5040164;28;20494;-77
2023/05/19 07:18:22;;;;;;;10.27;9.27;;;10.90;99.90;;;;;;5039368;28;20908;-77
2023/05/19 07:20:49;;;;;;;9.80;7.97;;;11.20;99.90;;;;;;5039197;28;20500;-76
2023/05/19 07:23:16;;;;;;;8.60;7.70;;;11.20;99.90;;;;;;5039526;28;20995;-77
2023/05/19 07:25:43;;;;;;;8.40;7.53;;;11.40;99.90;;;;;;5041443;28;20983;-76
2023/05/19 07:28:12;;;;;;;12.37;8.50;;;11.70;99.90;;;;;;5041526;28;21086;-76
2023/05/19 07:30:39;;;;;;;10.87;8.10;;;11.60;99.90;;;;;;5041920;28;20489;-76
2023/05/19 07:33:07;;;;;;;13.77;9.37;;;11.70;99.90;;;;;;5042475;28;20472;-76
2023/05/19 07:35:34;;;;;;;11.60;9.23;;;11.50;99.90;;;;;;5044585;28;20457;-77
2023/05/19 07:38:01;;;;;;;10.00;9.00;;;11.50;99.90;;;;;;5042083;28;20530;-76
2023/05/19 07:40:28;;;;;;;10.00;7.47;;;11.40;99.90;;;;;;5043932;28;20445;-76
2023/05/19 07:42:55;;;;;;;11.70;8.20;;;11.40;99.90;;;;;;5042661;28;20493;-76
2023/05/19 07:45:23;;;;;;;10.03;8.20;;;11.50;99.90;;;;;;5040083;28;20550;-76
2023/05/19 07:47:51;;;;;;;10.73;8.10;;;11.60;99.90;;;;;;5041596;28;20505;-76
2023/05/19 07:50:18;;;;;;;11.20;9.23;;;11.70;99.90;;;;;;5041376;28;20493;-76
2023/05/19 07:52:45;;;;;;;11.43;9.27;;;11.60;99.90;;;;;;5042242;28;20518;-76
2023/05/19 07:55:13;;;;;;;11.67;9.20;;;11.80;99.90;;;;;;5042367;28;20465;-76
2023/05/19 07:57:40;;;;;;;11.10;9.30;;;11.80;99.90;;;;;;5043062;28;20487;-76
2023/05/19 08:00:11;;;;;;;11.27;9.73;;;12.10;99.90;;;;;;5039149;28;20882;-76
2023/05/19 08:02:41;;;;;;;11.27;9.83;;;12.20;99.90;;;;;;5040318;28;20477;-76
2023/05/19 08:05:09;;;;;;;10.60;9.27;;;12.10;99.90;;;;;;5042924;28;20492;-77
2023/05/19 08:07:36;;;;;;;10.80;9.70;;;12.10;99.90;;;;;;5043471;28;20567;-77
2023/05/19 08:10:04;;;;;;;11.30;9.03;;;12.10;99.90;;;;;;5043433;28;20619;-76
2023/05/19 08:12:31;;;;;;;16.10;10.20;;;12.10;99.90;;;;;;5043910;28;20452;-77
2023/05/19 08:14:58;;;;;;;12.70;9.50;;;12.30;99.90;;;;;;5043671;28;20461;-76
2023/05/19 08:17:25;;;;;;;12.83;9.90;;;12.20;99.90;;;;;;5042217;28;20542;-76
2023/05/19 08:19:53;;;;;;;8.43;7.63;;;12.30;99.90;;;;;;5041219;28;20534;-76
2023/05/19 08:22:20;;;;;;;11.27;8.70;;;12.90;99.90;;;;;;5043189;28;20457;-77
2023/05/19 08:24:48;;;;;;;13.13;8.83;;;13.00;99.90;;;;;;5043298;28;20534;-76
2023/05/19 08:27:15;;;;;;;10.40;9.30;;;13.20;99.90;;;;;;5041767;28;20468;-76
2023/05/19 08:29:42;;;;;;;10.13;8.07;;;13.40;99.90;;;;;;5042597;28;20461;-76
2023/05/19 08:32:09;;;;;;;10.80;8.13;;;13.20;99.90;;;;;;5041061;28;20563;-76
2023/05/19 08:34:36;;;;;;;7.60;6.73;;;13.30;99.90;;;;;;5041428;28;20496;-76
2023/05/19 08:37:04;;;;;;;9.63;8.73;;;13.50;99.90;;;;;;5040122;28;20501;-76
2023/05/19 08:39:33;;;;;;;15.03;7.70;;;13.60;99.90;;;;;;5039689;28;20465;-77
2023/05/19 08:42:00;;;;;;;14.37;8.77;;;13.50;99.90;;;;;;5041575;28;20463;-77
2023/05/19 08:44:27;;;;;;;9.30;7.03;;;13.50;99.90;;;;;;5039673;28;20495;-77
2023/05/19 08:46:55;;;;;;;8.60;7.50;;;13.40;99.90;;;;;;5041077;28;20453;-77
2023/05/19 08:49:26;;;;;;;11.63;7.27;;;13.20;99.90;;;;;;5042357;28;20452;-77
2023/05/19 08:52:00;;;;;;;8.90;7.93;;;13.30;99.90;;;;;;5042158;28;20833;-76
2023/05/19 08:54:37;;;;;;;10.57;8.77;;;13.10;99.90;;;;;;5041237;28;20488;-77
2023/05/19 08:57:04;;;;;;;10.77;7.60;;;13.20;99.90;;;;;;5040127;28;20472;-77
2023/05/19 08:59:32;;;;;;;11.30;8.57;;;13.30;99.90;;;;;;5040041;28;20468;-76
2023/05/19 09:01:59;;;;;;;12.23;10.20;;;13.30;99.90;;;;;;5037742;28;20449;-76
2023/05/19 09:04:27;;;;;;;12.03;8.30;;;13.90;99.90;;;;;;5040995;28;20492;-77
2023/05/19 09:06:55;;;;;;;12.40;8.57;;;14.40;99.90;;;;;;5042268;28;20462;-77
2023/05/19 09:09:22;;;;;;;10.33;9.00;;;14.70;99.90;;;;;;5042105;28;20456;-77
2023/05/19 09:11:51;;;;;;;7.80;7.10;;;15.00;99.90;;;;;;5041101;28;20485;-77
2023/05/19 09:14:18;;;;;;;8.10;7.30;;;15.20;99.90;;;;;;5040317;28;20481;-77
2023/05/19 09:16:49;;;;;;;8.40;7.63;;;14.60;99.90;;;;;;5041697;28;20519;-77
2023/05/19 09:19:16;;;;;;;8.20;7.50;;;14.50;99.90;;;;;;5043122;28;20532;-77
2023/05/19 09:21:44;;;;;;;8.70;7.43;;;14.20;99.90;;;;;;5042022;28;20527;-76
2023/05/19 09:24:11;;;;;;;9.03;8.10;;;14.20;99.90;;;;;;5041362;28;20878;-76
2023/05/19 09:26:40;;;;;;;7.93;7.23;;;14.40;99.90;;;;;;5042642;28;20489;-77
2023/05/19 09:29:18;;;;;;;11.10;8.17;;;14.50;99.90;;;;;;5040452;28;21166;-77
2023/05/19 09:31:50;;;;;;;9.00;8.10;;;14.50;99.90;;;;;;5042278;28;20607;-76
2023/05/19 09:34:17;;;;;;;8.07;7.37;;;14.60;99.90;;;;;;5039690;28;20449;-77
2023/05/19 09:36:44;;;;;;;10.10;7.40;;;14.20;99.90;;;;;;5041504;28;20555;-77
2023/05/19 09:39:14;;;;;;;7.80;7.20;;;14.10;99.90;;;;;;5041379;28;20442;-77
2023/05/19 09:41:41;;;;;;;10.17;7.07;;;14.20;99.90;;;;;;5041663;28;21070;-77
2023/05/19 09:44:13;;;;;;;7.70;6.93;;;14.50;99.90;;;;;;5038942;28;20492;-77
2023/05/19 09:46:47;;;;;;;8.30;6.37;;;14.40;99.90;;;;;;5042193;28;20571;-76
2023/05/19 09:49:19;;;;;;;8.20;7.13;;;14.40;99.90;;;;;;5040556;28;20529;-76
2023/05/19 09:51:48;;;;;;;9.47;8.13;;;14.20;99.90;;;;;;5041242;28;20459;-76
2023/05/19 09:54:16;;;;;;;6.90;6.30;;;14.70;99.90;;;;;;5041990;28;20460;-77
2023/05/19 09:56:43;;;;;;;8.30;7.43;;;14.90;99.90;;;;;;5039272;28;20539;-77
2023/05/19 09:59:11;;;;;;;9.37;6.63;;;14.90;99.90;;;;;;5038045;28;20493;-77
2023/05/19 10:01:40;;;;;;;7.23;6.53;;;14.80;99.90;;;;;;5041772;28;20457;-76
2023/05/19 10:04:09;;;;;;;6.97;6.20;;;14.80;99.90;;;;;;5042587;28;20489;-76
2023/05/19 10:06:36;;;;;;;6.57;5.97;;;15.00;99.90;;;;;;5041273;28;20545;-76
2023/05/19 10:09:04;;;;;;;7.30;6.60;;;14.80;99.90;;;;;;5039950;28;20881;-76
2023/05/19 10:11:31;;;;;;;7.37;6.67;;;14.80;99.90;;;;;;5041607;28;20653;-77
2023/05/19 10:13:59;;;;;;;7.80;7.13;;;15.10;99.90;;;;;;5039588;28;20709;-77
2023/05/19 10:16:27;;;;;;;5.50;5.00;;;15.30;99.90;;;;;;5037112;28;20699;-77
2023/05/19 10:18:58;;;;;;;6.80;6.20;;;15.30;99.90;;;;;;5038396;28;20943;-77
2023/05/19 10:21:26;;;;;;;6.50;5.90;;;15.80;99.90;;;;;;5038385;28;20496;-77
2023/05/19 10:23:54;;;;;;;6.67;6.10;;;16.40;99.90;;;;;;5040132;28;21122;-77
2023/05/19 10:26:22;;;;;;;6.97;6.40;;;16.40;99.90;;;;;;5037635;28;21031;-76
2023/05/19 10:28:50;;;;;;;5.50;4.97;;;16.20;99.90;;;;;;5040710;28;20508;-77
2023/05/19 10:31:21;;;;;;;7.27;5.37;;;16.20;99.90;;;;;;5039413;28;20473;-77
2023/05/19 10:34:03;;;;;;;5.50;4.90;;;15.90;99.90;;;;;;5039131;28;20550;-77
2023/05/19 10:36:50;;;;;;;5.87;5.37;;;15.70;99.90;;;;;;5041112;28;20476;-78
2023/05/19 10:39:21;;;;;;;6.17;5.67;;;16.70;99.90;;;;;;5039587;28;20539;-77
2023/05/19 10:41:57;;;;;;;5.90;5.30;;;16.80;99.90;;;;;;5040142;28;20470;-78
2023/05/19 10:44:40;;;;;;;5.10;4.70;;;16.70;99.90;;;;;;5041182;28;20557;-78
2023/05/19 10:47:07;;;;;;;8.43;5.17;;;16.50;99.90;;;;;;5039289;28;20622;-78
2023/05/19 10:49:36;;;;;;;5.63;5.13;;;17.10;99.90;;;;;;5038913;28;21028;-78
2023/05/19 10:52:18;;;;;;;5.20;4.70;;;17.40;99.90;;;;;;5040797;28;20454;-78
2023/05/19 10:54:46;;;;;;;5.97;5.37;;;17.00;99.90;;;;;;5040053;28;20485;-78
2023/05/19 10:57:16;;;;;;;9.03;5.40;;;16.20;99.90;;;;;;5039348;28;20552;-78
2023/05/19 10:59:44;;;;;;;6.70;6.03;;;16.40;99.90;;;;;;5041067;28;20462;-78
2023/05/19 11:02:31;;;;;;;5.33;4.83;;;16.80;99.90;;;;;;5039384;28;20461;-78
2023/05/19 11:05:08;;;;;;;8.43;5.10;;;17.30;99.90;;;;;;5040960;28;21227;-78
2023/05/19 11:07:36;;;;;;;5.53;4.73;;;17.70;99.90;;;;;;5040328;28;20549;-78
2023/05/19 11:10:07;;;;;;;7.33;4.80;;;17.20;99.90;;;;;;5041432;28;20521;-78
2023/05/19 11:12:41;;;;;;;5.13;4.77;;;17.00;99.90;;;;;;5040064;28;21269;-77
2023/05/19 11:15:11;;;;;;;5.70;5.20;;;16.80;99.90;;;;;;5041098;28;20462;-77
2023/05/19 11:17:40;;;;;;;5.50;4.17;;;17.30;99.90;;;;;;5040168;28;20545;-78
2023/05/19 11:20:09;;;;;;;4.90;4.40;;;17.40;99.90;;;;;;5038241;28;20494;-78
2023/05/19 11:22:39;;;;;;;5.90;4.80;;;17.50;99.90;;;;;;5038858;28;20450;-78
2023/05/19 11:25:08;;;;;;;4.50;4.13;;;17.70;99.90;;;;;;5038968;28;20600;-77
2023/05/19 11:27:36;;;;;;;4.40;4.10;;;17.40;99.90;;;;;;5038890;28;20463;-78
2023/05/19 11:30:13;;;;;;;5.20;4.80;;;17.40;99.90;;;;;;5041125;28;20448;-77
2023/05/19 11:32:42;;;;;;;4.83;4.37;;;17.50;99.90;;;;;;5039657;28;21086;-78
2023/05/19 11:35:10;;;;;;;5.00;4.10;;;17.40;99.90;;;;;;5040377;28;20827;-77
2023/05/19 11:37:39;;;;;;;5.13;4.73;;;17.80;99.90;;;;;;5037188;28;20552;-77
2023/05/19 11:40:08;;;;;;;4.43;4.10;;;17.90;99.90;;;;;;5037211;28;20471;-78
2023/05/19 11:42:36;;;;;;;4.27;3.87;;;17.80;99.90;;;;;;5040049;28;20536;-79
2023/05/19 11:45:03;;;;;;;4.37;4.03;;;17.80;99.90;;;;;;5039863;28;20514;-77
2023/05/19 11:47:32;;;;;;;5.27;4.83;;;18.10;99.90;;;;;;5039814;28;20456;-76
2023/05/19 11:50:00;;;;;;;5.13;4.10;;;18.40;99.90;;;;;;5039995;28;20819;-76
2023/05/19 11:52:27;;;;;;;5.37;4.97;;;18.10;99.90;;;;;;5040426;28;20463;-77
2023/05/19 11:54:57;;;;;;;4.27;3.93;;;18.30;99.90;;;;;;5035850;28;20926;-77
2023/05/19 11:57:24;;;;;;;4.80;4.30;;;18.50;99.90;;;;;;5036399;28;20520;-77
2023/05/19 11:59:52;;;;;;;6.90;4.77;;;18.50;99.90;;;;;;5037900;28;21229;-77
2023/05/19 12:02:20;;;;;;;4.07;3.77;;;18.90;99.90;;;;;;5039362;28;20552;-77
2023/05/19 12:04:48;;;;;;;4.60;3.73;;;19.00;99.90;;;;;;5038196;28;20496;-78
2023/05/19 12:07:17;;;;;;;5.83;3.13;;;18.90;99.90;;;;;;5039991;28;20536;-78
2023/05/19 12:09:45;;;;;;;5.77;3.70;;;18.90;99.90;;;;;;5037336;28;20461;-78
2023/05/19 12:12:15;;;;;;;3.30;3.00;;;19.10;99.90;;;;;;5038781;28;20978;-77
2023/05/19 12:14:43;;;;;;;4.27;3.87;;;19.20;99.90;;;;;;5042274;28;20476;-78
2023/05/19 12:17:14;;;;;;;4.77;4.27;;;19.40;99.90;;;;;;5040650;28;20460;-78
2023/05/19 12:19:43;;;;;;;4.50;4.10;;;19.30;99.90;;;;;;5040584;28;21352;-77
2023/05/19 12:22:11;;;;;;;4.40;2.83;;;19.50;99.90;;;;;;5042209;28;20456;-78
2023/05/19 12:24:38;;;;;;;10.37;3.80;;;20.10;99.90;;;;;;5040122;28;20959;-78
2023/05/19 12:27:10;;;;;;;3.70;3.40;;;20.10;99.90;;;;;;5038943;28;20468;-78
2023/05/19 12:29:38;;;;;;;4.10;3.77;;;20.10;99.90;;;;;;5043671;28;20501;-78
2023/05/19 12:32:07;;;;;;;5.00;3.80;;;19.90;99.90;;;;;;5041530;28;20480;-77
2023/05/19 12:34:36;;;;;;;3.17;2.87;;;19.60;99.90;;;;;;5041744;28;20873;-78
2023/05/19 12:37:04;;;;;;;3.30;3.03;;;19.80;99.90;;;;;;5041773;28;20465;-78
2023/05/19 12:39:31;;;;;;;3.03;2.70;;;19.60;99.90;;;;;;5043444;28;20453;-78
2023/05/19 12:42:02;;;;;;;3.00;2.73;;;19.30;99.90;;;;;;5042424;28;20465;-78
2023/05/19 12:44:30;;;;;;;3.50;3.20;;;19.40;99.90;;;;;;5040383;28;20495;-78
2023/05/19 12:46:59;;;;;;;3.60;3.30;;;19.60;99.90;;;;;;5041236;28;20473;-78
2023/05/19 12:49:26;;;;;;;3.37;3.07;;;19.90;99.90;;;;;;5041637;28;20488;-78
2023/05/19 12:51:53;;;;;;;2.63;2.43;;;19.60;99.90;;;;;;5042012;28;20451;-77
2023/05/19 12:54:20;;;;;;;4.70;3.80;;;20.10;99.90;;;;;;5040718;28;20491;-78